Time;durP1;ratioP1;P1;durP2;ratioP2;P2;SDS_P1;SDS_P2;PMS_P1;PMS_P2;Temp;Humidity;BMP_temperature;BMP_pressure;BME280_temperature;BME280_humidity;BME280_pressure;Samples;Min_cycle;Max_cycle;Signal;HPM_P1;HPM_P2
2022/05/14 00:01:15;;;;;;;24.52;5.20;;;12.60;99.90;;;;;;5068587;28;20051;-78
2022/05/14 00:03:41;;;;;;;26.95;5.28;;;12.20;99.90;;;;;;5068951;28;20078;-78
2022/05/14 00:06:12;;;;;;;22.85;5.50;;;12.20;99.90;;;;;;5068398;28;20076;-79
2022/05/14 00:08:38;;;;;;;24.50;5.18;;;12.20;99.90;;;;;;5069767;28;20493;-79
2022/05/14 00:13:50;;;;;;;24.85;6.43;;;12.10;99.90;;;;;;5068678;28;20054;-78
2022/05/14 00:16:18;;;;;;;23.20;4.82;;;12.00;99.90;;;;;;5068986;28;20054;-78
2022/05/14 00:18:44;;;;;;;26.95;5.15;;;12.00;99.90;;;;;;5068158;28;20051;-79
2022/05/14 00:21:12;;;;;;;21.38;4.80;;;11.90;99.90;;;;;;5068461;28;20454;-78
2022/05/14 00:23:37;;;;;;;23.08;4.90;;;11.90;99.90;;;;;;5069048;28;20101;-78
2022/05/14 00:26:03;;;;;;;28.75;4.80;;;12.30;99.90;;;;;;5072145;28;20048;-79
2022/05/14 00:28:29;;;;;;;38.75;6.20;;;11.80;99.90;;;;;;5073244;28;20394;-78
2022/05/14 00:30:55;;;;;;;25.60;4.97;;;11.90;99.90;;;;;;5072783;28;20039;-78
2022/05/14 00:33:21;;;;;;;21.92;4.90;;;11.80;99.90;;;;;;5072161;28;20552;-79
2022/05/14 00:35:46;;;;;;;28.10;6.22;;;11.80;99.90;;;;;;5072810;28;20048;-78
2022/05/14 00:38:13;;;;;;;30.75;6.10;;;11.70;99.90;;;;;;5071828;28;20728;-78
2022/05/14 00:40:42;;;;;;;23.95;5.35;;;11.70;99.90;;;;;;5073171;28;20042;-79
2022/05/14 00:43:09;;;;;;;21.77;5.50;;;11.70;99.90;;;;;;5072557;28;20095;-78
2022/05/14 00:45:38;;;;;;;21.88;5.20;;;11.80;99.90;;;;;;5072642;28;20043;-78
2022/05/14 00:48:05;;;;;;;26.67;5.57;;;11.80;99.90;;;;;;5072479;28;20387;-78
2022/05/14 00:50:35;;;;;;;24.05;4.90;;;11.80;99.90;;;;;;5073086;28;20456;-79
2022/05/14 00:53:07;;;;;;;27.58;6.13;;;11.90;99.90;;;;;;5071674;28;20487;-78
2022/05/14 00:55:33;;;;;;;27.67;5.95;;;11.90;99.90;;;;;;5073094;28;20536;-78
2022/05/14 00:58:01;;;;;;;35.38;6.30;;;12.00;99.90;;;;;;5071830;28;20151;-78
2022/05/14 01:00:27;;;;;;;25.25;6.18;;;12.20;99.90;;;;;;5055070;28;20044;-78
2022/05/14 01:02:52;;;;;;;33.05;6.20;;;12.10;99.90;;;;;;5071987;28;20110;-79
2022/05/14 01:05:20;;;;;;;29.85;6.18;;;12.10;99.90;;;;;;5071568;28;20082;-78
2022/05/14 01:07:49;;;;;;;28.73;6.13;;;12.10;99.90;;;;;;5071678;28;20127;-78
2022/05/14 01:10:18;;;;;;;29.48;5.28;;;12.10;99.90;;;;;;5072284;28;20113;-78
2022/05/14 01:12:50;;;;;;;33.13;6.60;;;12.10;99.90;;;;;;5055536;28;20047;-78
2022/05/14 01:15:19;;;;;;;27.25;7.03;;;12.00;99.90;;;;;;5089588;28;20372;-78
2022/05/14 01:17:46;;;;;;;33.33;6.68;;;12.00;99.90;;;;;;5071931;28;20494;-79
2022/05/14 01:20:14;;;;;;;31.33;6.60;;;12.00;99.90;;;;;;5071965;28;20471;-78
2022/05/14 01:22:52;;;;;;;28.85;6.10;;;12.10;99.90;;;;;;5071515;28;20829;-78
2022/05/14 01:28:21;;;;;;;29.73;6.47;;;12.00;99.90;;;;;;5088732;28;20403;-78
2022/05/14 01:30:54;;;;;;;33.72;6.25;;;12.00;99.90;;;;;;5071701;28;20044;-78
2022/05/14 01:33:20;;;;;;;41.13;7.78;;;12.00;99.90;;;;;;5054786;28;20823;-78
2022/05/14 01:35:46;;;;;;;31.05;6.65;;;12.10;99.90;;;;;;5070237;28;20048;-78
2022/05/14 01:38:12;;;;;;;35.72;7.05;;;12.00;99.90;;;;;;5071713;28;20613;-78
2022/05/14 01:40:38;;;;;;;29.77;6.18;;;12.20;99.90;;;;;;5071636;28;20495;-78
2022/05/14 01:43:03;;;;;;;27.67;7.07;;;11.90;99.90;;;;;;5070665;28;20087;-78
2022/05/14 01:45:30;;;;;;;33.47;6.68;;;11.90;99.90;;;;;;5072476;28;20046;-78
2022/05/14 01:47:55;;;;;;;29.38;7.35;;;11.90;99.90;;;;;;5071587;28;20113;-78
2022/05/14 01:50:22;;;;;;;37.42;7.35;;;11.80;99.90;;;;;;5070134;28;20043;-78
2022/05/14 01:52:47;;;;;;;26.40;7.13;;;12.00;99.90;;;;;;5071530;28;20048;-78
2022/05/14 01:55:13;;;;;;;34.33;6.90;;;11.80;99.90;;;;;;5054545;28;20456;-79
2022/05/14 01:57:39;;;;;;;33.72;8.40;;;11.80;99.90;;;;;;5070694;28;20040;-78
2022/05/14 02:00:08;;;;;;;41.80;7.20;;;11.80;99.90;;;;;;5070845;28;20128;-77
2022/05/14 02:02:34;;;;;;;36.22;8.02;;;11.80;99.90;;;;;;5071043;28;20044;-78
2022/05/14 02:05:00;;;;;;;35.30;9.10;;;11.80;99.90;;;;;;5070863;28;20047;-78
2022/05/14 02:07:27;;;;;;;33.20;8.52;;;11.80;99.90;;;;;;5071297;28;20040;-78
2022/05/14 02:09:52;;;;;;;38.85;8.27;;;12.00;99.90;;;;;;5070483;28;20093;-78
2022/05/14 02:12:18;;;;;;;29.92;7.85;;;11.70;99.90;;;;;;5071146;28;20036;-78
2022/05/14 02:14:45;;;;;;;42.42;8.98;;;11.90;99.90;;;;;;5070849;28;20086;-78
2022/05/14 02:17:12;;;;;;;34.17;7.80;;;11.60;99.90;;;;;;5069650;28;20048;-78
2022/05/14 02:19:37;;;;;;;48.95;9.55;;;11.50;99.90;;;;;;5089244;28;20146;-78
2022/05/14 02:22:05;;;;;;;37.22;8.13;;;11.60;99.90;;;;;;5070440;28;20135;-78
2022/05/14 02:24:32;;;;;;;33.17;8.02;;;11.40;99.90;;;;;;5070560;28;20044;-79
2022/05/14 02:26:57;;;;;;;41.40;8.68;;;11.30;99.90;;;;;;5071230;28;20059;-78
2022/05/14 02:29:24;;;;;;;41.75;9.10;;;11.50;99.90;;;;;;5069747;28;20048;-78
2022/05/14 02:31:50;;;;;;;42.92;8.75;;;11.20;99.90;;;;;;5070910;28;20052;-78
2022/05/14 02:34:17;;;;;;;39.80;8.50;;;11.30;99.90;;;;;;5069676;28;20104;-78
2022/05/14 02:36:43;;;;;;;39.70;8.88;;;11.10;99.90;;;;;;5071020;28;20055;-78
2022/05/14 02:39:09;;;;;;;39.72;10.18;;;11.20;99.90;;;;;;5068946;28;20459;-78
2022/05/14 02:41:35;;;;;;;45.75;9.48;;;10.90;99.90;;;;;;5070903;28;20084;-78
2022/05/14 02:44:00;;;;;;;37.72;9.70;;;10.90;99.90;;;;;;5070365;28;20122;-78
2022/05/14 02:46:26;;;;;;;40.50;9.75;;;10.90;99.90;;;;;;5069405;28;20071;-78
2022/05/14 02:48:52;;;;;;;41.47;9.68;;;11.00;99.90;;;;;;5087967;28;20123;-78
2022/05/14 02:51:18;;;;;;;46.70;9.00;;;11.00;99.90;;;;;;5069194;28;20048;-78
2022/05/14 02:53:43;;;;;;;47.60;9.18;;;11.00;99.90;;;;;;5069973;28;20044;-78
2022/05/14 02:56:09;;;;;;;39.55;9.60;;;11.00;99.90;;;;;;5070046;28;20044;-78
2022/05/14 03:01:19;;;;;;;51.22;9.45;;;11.20;99.90;;;;;;5069320;28;20142;-78
2022/05/14 03:03:44;;;;;;;51.63;9.98;;;10.90;99.90;;;;;;5070404;28;20130;-78
2022/05/14 03:06:10;;;;;;;45.40;9.43;;;10.80;99.90;;;;;;5068243;28;20089;-78
2022/05/14 03:08:36;;;;;;;43.50;9.60;;;10.70;99.90;;;;;;5070808;28;20118;-78
2022/05/14 03:11:02;;;;;;;43.00;10.05;;;10.70;99.90;;;;;;5070353;28;20404;-78
2022/05/14 03:13:28;;;;;;;54.15;10.52;;;10.60;99.90;;;;;;5052577;28;20044;-78
2022/05/14 03:15:53;;;;;;;50.13;9.20;;;10.60;99.90;;;;;;5089451;28;20048;-78
2022/05/14 03:18:19;;;;;;;40.67;9.25;;;10.60;99.90;;;;;;5069345;28;20044;-79
2022/05/14 03:20:46;;;;;;;44.80;8.80;;;10.60;99.90;;;;;;5069447;28;20048;-78
2022/05/14 03:23:11;;;;;;;61.55;9.52;;;10.50;99.90;;;;;;5088410;28;20059;-78
2022/05/14 03:25:37;;;;;;;59.35;9.52;;;10.40;99.90;;;;;;5088535;28;20069;-78
2022/05/14 03:28:03;;;;;;;43.03;9.73;;;10.60;99.90;;;;;;5068663;28;20562;-78
2022/05/14 03:30:29;;;;;;;41.50;9.82;;;10.30;99.90;;;;;;5088032;28;20089;-78
2022/05/14 03:32:55;;;;;;;53.22;10.30;;;10.30;99.90;;;;;;5069841;28;20177;-78
2022/05/14 03:35:21;;;;;;;50.28;10.60;;;10.40;99.90;;;;;;5068608;28;20095;-78
2022/05/14 03:37:46;;;;;;;49.72;9.98;;;10.30;99.90;;;;;;5069434;28;20456;-78
2022/05/14 03:40:12;;;;;;;54.75;9.85;;;10.30;99.90;;;;;;5069659;28;20464;-78
2022/05/14 03:42:38;;;;;;;37.25;9.55;;;10.20;99.90;;;;;;5087298;28;20079;-78
2022/05/14 03:45:04;;;;;;;43.55;9.38;;;10.60;99.90;;;;;;5069503;28;20173;-77
2022/05/14 03:47:30;;;;;;;41.65;9.50;;;10.20;99.90;;;;;;5070495;28;20177;-78
2022/05/14 03:49:55;;;;;;;49.90;9.55;;;10.10;99.90;;;;;;5068438;28;20464;-78
2022/05/14 03:52:21;;;;;;;45.22;9.98;;;10.00;99.90;;;;;;5087654;28;20040;-78
2022/05/14 03:54:47;;;;;;;51.55;10.13;;;10.00;99.90;;;;;;5069585;28;20052;-78
2022/05/14 03:57:13;;;;;;;40.63;9.73;;;10.00;99.90;;;;;;5068681;28;20060;-78
2022/05/14 03:59:39;;;;;;;52.70;10.90;;;10.40;99.90;;;;;;5069002;28;20055;-78
2022/05/14 04:02:06;;;;;;;53.55;11.02;;;10.10;99.90;;;;;;5068060;28;20056;-78
2022/05/14 04:04:32;;;;;;;48.47;10.27;;;10.00;99.90;;;;;;5087753;28;20051;-77
2022/05/14 04:06:58;;;;;;;48.65;11.07;;;10.40;99.90;;;;;;5069564;28;20514;-78
2022/05/14 04:09:24;;;;;;;56.08;10.32;;;10.10;99.90;;;;;;5068403;28;20043;-78
2022/05/14 04:11:51;;;;;;;62.42;12.88;;;10.10;99.90;;;;;;5069836;28;20043;-78
2022/05/14 04:14:17;;;;;;;53.80;11.50;;;10.10;99.90;;;;;;5086961;28;20341;-78
2022/05/14 04:16:43;;;;;;;49.25;11.80;;;10.20;99.90;;;;;;5069374;28;20051;-78
2022/05/14 04:19:09;;;;;;;53.58;11.23;;;10.20;99.90;;;;;;5068431;28;20509;-78
2022/05/14 04:21:35;;;;;;;51.22;11.20;;;10.30;99.90;;;;;;5069505;28;20499;-78
2022/05/14 04:24:01;;;;;;;52.92;11.63;;;10.60;99.90;;;;;;5052227;28;20050;-78
2022/05/14 04:26:27;;;;;;;52.83;10.88;;;10.40;99.90;;;;;;5069832;28;20056;-78
2022/05/14 04:28:53;;;;;;;60.08;10.77;;;10.40;99.90;;;;;;5087180;28;20483;-78
2022/05/14 04:31:21;;;;;;;48.40;11.07;;;10.40;99.90;;;;;;5068194;28;20043;-78
2022/05/14 04:33:47;;;;;;;43.08;11.13;;;10.70;99.90;;;;;;5052296;28;20044;-78
2022/05/14 04:36:13;;;;;;;38.40;9.80;;;10.70;99.90;;;;;;5068101;28;20048;-78
2022/05/14 04:38:38;;;;;;;48.13;9.45;;;10.70;99.90;;;;;;5068449;28;20036;-78
2022/05/14 04:41:04;;;;;;;47.83;10.65;;;11.00;99.90;;;;;;5068609;28;20411;-78
2022/05/14 04:43:31;;;;;;;50.17;12.40;;;10.70;99.90;;;;;;5068495;28;20044;-78
2022/05/14 04:45:57;;;;;;;54.55;11.00;;;10.80;99.90;;;;;;5068493;28;20155;-78
2022/05/14 04:48:23;;;;;;;43.92;8.98;;;11.10;99.90;;;;;;5086691;28;20641;-78
2022/05/14 04:50:49;;;;;;;47.47;10.20;;;11.10;99.90;;;;;;5087209;28;20085;-78
2022/05/14 04:53:15;;;;;;;46.83;11.10;;;11.00;99.90;;;;;;5067874;28;20063;-78
2022/05/14 04:55:41;;;;;;;44.08;9.93;;;11.10;99.90;;;;;;5068670;28;20120;-78
2022/05/14 04:58:07;;;;;;;41.75;9.88;;;11.20;99.90;;;;;;5064296;28;20111;-79
2022/05/14 05:00:34;;;;;;;56.83;12.10;;;11.20;99.90;;;;;;5081849;28;20143;-78
2022/05/14 05:03:17;;;;;;;42.55;9.85;;;11.30;99.90;;;;;;5065802;28;20098;-78
2022/05/14 05:05:44;;;;;;;41.75;10.20;;;11.30;99.90;;;;;;5066455;28;20143;-78
2022/05/14 05:08:10;;;;;;;43.90;9.90;;;11.50;99.90;;;;;;5064998;28;20057;-78
2022/05/14 05:10:36;;;;;;;41.33;8.82;;;11.50;99.90;;;;;;5065874;28;20121;-78
2022/05/14 05:13:03;;;;;;;45.00;10.50;;;11.90;99.90;;;;;;5067945;28;20044;-78
2022/05/14 05:15:28;;;;;;;44.88;10.07;;;11.80;99.90;;;;;;5070486;28;20040;-78
2022/05/14 05:17:55;;;;;;;34.03;9.23;;;11.90;99.90;;;;;;5069050;28;20071;-78
2022/05/14 05:20:21;;;;;;;39.95;8.73;;;12.00;99.90;;;;;;5067187;28;20569;-78
2022/05/14 05:22:48;;;;;;;46.97;9.55;;;12.10;99.90;;;;;;5069055;28;20056;-78
2022/05/14 05:25:14;;;;;;;47.10;8.32;;;12.30;99.90;;;;;;5068530;28;20048;-78
2022/05/14 05:27:40;;;;;;;32.75;8.13;;;12.40;99.90;;;;;;5067683;28;20075;-78
2022/05/14 05:30:07;;;;;;;33.67;7.60;;;12.30;99.90;;;;;;5068511;28;20075;-78
2022/05/14 05:32:32;;;;;;;36.45;8.05;;;12.40;99.90;;;;;;5068342;28;20143;-77
2022/05/14 05:34:58;;;;;;;39.40;7.28;;;12.50;99.90;;;;;;5068944;28;20161;-77
2022/05/14 05:37:24;;;;;;;37.30;7.35;;;12.60;99.90;;;;;;5077448;28;20040;-78
2022/05/14 05:39:49;;;;;;;33.10;7.30;;;12.50;99.90;;;;;;5088763;28;20048;-78
2022/05/14 05:42:15;;;;;;;37.00;7.72;;;12.40;99.90;;;;;;5076905;28;20040;-78
2022/05/14 05:44:40;;;;;;;37.75;7.80;;;12.40;99.90;;;;;;5077729;28;20032;-78
2022/05/14 05:47:07;;;;;;;39.08;7.72;;;12.40;99.90;;;;;;5076811;28;20138;-78
2022/05/14 05:49:34;;;;;;;46.70;9.52;;;12.60;99.90;;;;;;5077006;28;20059;-79
2022/05/14 05:52:00;;;;;;;33.13;7.03;;;12.70;99.90;;;;;;5078627;28;20046;-79
2022/05/14 05:57:10;;;;;;;45.00;7.28;;;13.20;99.90;;;;;;5093889;28;20117;-78
2022/05/14 05:59:36;;;;;;;31.48;7.07;;;13.10;99.90;;;;;;5099775;28;20051;-79
2022/05/14 06:02:02;;;;;;;42.00;7.35;;;13.20;99.90;;;;;;5073146;28;20051;-78
2022/05/14 06:04:28;;;;;;;36.67;7.22;;;13.30;99.90;;;;;;5073161;28;20462;-79
2022/05/14 06:06:54;;;;;;;40.63;7.95;;;13.50;99.90;;;;;;5074336;28;20111;-79
2022/05/14 06:09:22;;;;;;;44.45;8.32;;;13.60;99.90;;;;;;5056383;28;20032;-78
2022/05/14 06:11:49;;;;;;;42.80;7.63;;;13.70;99.90;;;;;;5061378;28;20050;-78
2022/05/14 06:14:15;;;;;;;36.50;6.70;;;13.90;99.90;;;;;;5075411;28;20055;-79
2022/05/14 06:16:41;;;;;;;30.88;6.75;;;14.10;99.90;;;;;;5072678;28;20044;-79
2022/05/14 06:19:08;;;;;;;31.48;6.45;;;14.20;99.90;;;;;;5079103;28;20044;-79
2022/05/14 06:21:36;;;;;;;31.60;6.20;;;14.20;99.90;;;;;;5078428;28;20047;-79
2022/05/14 06:24:02;;;;;;;26.05;5.95;;;14.20;99.90;;;;;;5079531;28;20052;-79
2022/05/14 06:26:28;;;;;;;26.50;5.32;;;14.10;99.90;;;;;;5082010;28;20483;-79
2022/05/14 06:28:53;;;;;;;32.92;7.35;;;14.00;99.90;;;;;;5075927;28;20036;-80
2022/05/14 06:31:19;;;;;;;30.20;6.60;;;14.20;99.90;;;;;;5074868;28;20516;-79
2022/05/14 06:33:45;;;;;;;28.75;5.85;;;13.90;99.90;;;;;;5082534;28;20036;-79
2022/05/14 06:36:11;;;;;;;28.42;6.00;;;13.90;99.90;;;;;;5078014;28;20039;-80
2022/05/14 06:38:37;;;;;;;27.77;5.90;;;13.80;99.90;;;;;;5074407;28;20075;-79
2022/05/14 06:41:06;;;;;;;28.00;6.22;;;13.80;99.90;;;;;;5077875;28;20090;-79
2022/05/14 06:43:32;;;;;;;30.15;7.35;;;13.90;99.90;;;;;;5091742;28;20057;-79
2022/05/14 06:45:57;;;;;;;33.80;5.63;;;13.90;99.90;;;;;;5089050;28;20387;-79
2022/05/14 06:48:23;;;;;;;34.90;5.75;;;14.00;99.90;;;;;;5107575;28;20039;-79
2022/05/14 06:50:49;;;;;;;32.22;5.60;;;14.20;99.90;;;;;;5086769;28;20053;-79
2022/05/14 06:53:17;;;;;;;35.20;6.53;;;14.30;99.90;;;;;;5086360;28;20040;-79
2022/05/14 06:55:46;;;;;;;23.20;4.70;;;14.40;99.90;;;;;;5067241;28;20039;-80
2022/05/14 06:58:16;;;;;;;19.02;4.47;;;14.50;99.90;;;;;;5075078;28;20052;-79
2022/05/14 07:00:43;;;;;;;31.98;6.00;;;14.60;99.90;;;;;;5075735;28;20044;-80
2022/05/14 07:08:39;;;;;;;20.85;5.20;;;14.80;99.90;;;;;;5075093;28;20051;-80
2022/05/14 07:11:05;;;;;;;23.60;4.90;;;14.90;99.90;;;;;;5083303;28;20124;-79
2022/05/14 07:13:30;;;;;;;25.15;5.15;;;15.00;99.90;;;;;;5080947;28;20036;-79
2022/05/14 07:15:56;;;;;;;24.27;4.95;;;15.10;99.90;;;;;;5066596;28;20503;-79
2022/05/14 07:18:21;;;;;;;23.13;5.78;;;15.10;99.90;;;;;;5066342;28;20048;-79
2022/05/14 07:20:47;;;;;;;27.70;5.22;;;15.20;99.90;;;;;;5068966;28;20054;-79
2022/05/14 07:23:13;;;;;;;22.08;4.50;;;15.30;99.90;;;;;;5086059;28;20047;-79
2022/05/14 07:25:39;;;;;;;23.35;4.50;;;15.20;99.90;;;;;;5089170;28;20048;-79
2022/05/14 07:28:08;;;;;;;25.92;5.05;;;15.30;99.90;;;;;;5096428;28;20051;-79
2022/05/14 07:30:34;;;;;;;29.77;6.18;;;15.30;99.90;;;;;;5077543;28;20044;-79
2022/05/14 07:33:00;;;;;;;21.02;4.45;;;15.40;99.90;;;;;;5101026;28;20054;-79
2022/05/14 07:35:26;;;;;;;23.70;4.70;;;15.50;99.90;;;;;;5104697;28;20119;-79
2022/05/14 07:37:55;;;;;;;18.25;4.00;;;15.50;99.90;;;;;;5094181;28;20044;-79
2022/05/14 07:40:25;;;;;;;18.45;3.90;;;15.60;99.90;;;;;;5074580;28;20081;-79
2022/05/14 07:42:59;;;;;;;35.25;4.25;;;15.70;99.90;;;;;;5094953;28;20056;-80
2022/05/14 07:45:33;;;;;;;43.42;5.47;;;15.70;99.90;;;;;;5088908;28;20483;-79
2022/05/14 07:48:01;;;;;;;24.52;4.18;;;15.80;99.90;;;;;;5094511;28;20048;-79
2022/05/14 07:50:27;;;;;;;32.58;5.25;;;15.90;99.90;;;;;;5088406;28;20082;-79
2022/05/14 07:52:53;;;;;;;21.95;4.05;;;16.00;99.90;;;;;;5080548;28;20054;-79
2022/05/14 07:55:19;;;;;;;33.47;4.93;;;16.10;99.90;;;;;;5084561;28;20052;-79
2022/05/14 07:57:45;;;;;;;16.98;4.38;;;16.10;99.90;;;;;;5090572;28;20059;-79
2022/05/14 08:00:11;;;;;;;29.58;5.03;;;16.10;99.90;;;;;;5087421;28;20483;-79
2022/05/14 08:02:39;;;;;;;20.95;4.20;;;16.20;99.90;;;;;;5095810;28;20139;-79
2022/05/14 08:05:08;;;;;;;16.85;3.50;;;16.20;99.90;;;;;;5102787;28;20444;-79
2022/05/14 08:07:34;;;;;;;17.50;4.00;;;16.30;99.90;;;;;;5091617;28;20396;-80
2022/05/14 08:10:00;;;;;;;28.77;4.38;;;16.40;99.90;;;;;;5098285;28;20398;-80
2022/05/14 08:12:34;;;;;;;20.45;3.92;;;16.50;99.90;;;;;;5105378;28;20055;-79
2022/05/14 08:14:59;;;;;;;20.30;4.18;;;16.60;99.90;;;;;;5078506;28;20044;-79
2022/05/14 08:17:26;;;;;;;18.30;4.00;;;16.70;99.90;;;;;;5101834;28;20054;-81
2022/05/14 08:19:52;;;;;;;22.52;4.90;;;16.80;99.90;;;;;;5097473;28;20087;-79
2022/05/14 08:25:02;;;;;;;29.75;5.00;;;16.90;99.90;;;;;;5090037;28;20091;-79
2022/05/14 08:27:27;;;;;;;22.42;4.55;;;16.90;99.90;;;;;;5097975;28;20063;-80
2022/05/14 08:29:53;;;;;;;22.30;4.65;;;17.00;99.90;;;;;;5084859;28;20055;-80
2022/05/14 08:32:20;;;;;;;26.08;4.70;;;16.90;99.90;;;;;;5097473;28;20072;-81
2022/05/14 08:34:46;;;;;;;27.05;6.10;;;16.90;99.90;;;;;;5085865;28;20384;-81
2022/05/14 08:37:12;;;;;;;22.70;5.13;;;16.90;99.90;;;;;;5096251;28;20471;-80
2022/05/14 08:39:38;;;;;;;22.75;5.05;;;17.20;99.90;;;;;;5090301;28;20074;-80
2022/05/14 08:42:08;;;;;;;19.25;5.43;;;17.20;99.90;;;;;;5096110;28;20112;-80
2022/05/14 08:44:36;;;;;;;25.48;4.95;;;17.30;99.90;;;;;;5085179;28;20056;-80
2022/05/14 08:47:06;;;;;;;21.60;4.93;;;17.40;99.90;;;;;;5098518;28;20075;-80
2022/05/14 08:49:34;;;;;;;19.95;4.70;;;17.60;99.90;;;;;;5090135;28;20047;-80
2022/05/14 08:52:04;;;;;;;21.40;4.93;;;17.60;99.90;;;;;;5082186;28;20083;-80
2022/05/14 08:54:29;;;;;;;19.75;4.00;;;17.60;99.90;;;;;;5090783;28;20106;-81
2022/05/14 08:57:03;;;;;;;28.42;5.18;;;17.60;99.90;;;;;;5099301;28;20063;-81
2022/05/14 08:59:45;;;;;;;22.25;5.18;;;17.50;99.90;;;;;;5070339;28;20063;-81
2022/05/14 09:02:17;;;;;;;19.65;5.05;;;17.40;99.90;;;;;;5072503;28;20084;-81
2022/05/14 09:04:43;;;;;;;23.30;4.88;;;17.40;99.90;;;;;;5071581;28;20091;-81
2022/05/14 09:07:09;;;;;;;19.33;4.55;;;17.60;99.90;;;;;;5055542;28;20099;-81
2022/05/14 09:09:34;;;;;;;22.80;4.85;;;17.70;99.90;;;;;;5071988;28;20080;-80
2022/05/14 09:12:03;;;;;;;24.55;4.88;;;17.70;99.90;;;;;;5072126;28;20040;-80
2022/05/14 09:14:34;;;;;;;21.52;4.68;;;17.80;99.90;;;;;;5062332;28;20091;-81
2022/05/14 09:17:04;;;;;;;21.27;4.43;;;17.90;99.90;;;;;;5091442;28;20052;-80
2022/05/14 09:19:38;;;;;;;24.33;5.55;;;18.00;99.90;;;;;;5070680;28;20044;-80
2022/05/14 09:22:30;;;;;;;20.83;4.95;;;18.30;99.90;;;;;;5072266;28;20423;-81
2022/05/14 09:25:24;;;;;;;17.67;4.45;;;18.60;99.90;;;;;;5071651;28;20113;-80
2022/05/14 09:27:55;;;;;;;22.52;4.47;;;18.80;99.90;;;;;;5054812;28;20117;-80
2022/05/14 09:30:34;;;;;;;19.98;4.90;;;19.00;99.90;;;;;;5071273;28;20052;-80
2022/05/14 09:33:00;;;;;;;27.23;4.90;;;19.20;99.90;;;;;;5071178;28;20479;-80
2022/05/14 09:35:29;;;;;;;21.45;4.45;;;19.20;99.90;;;;;;5091623;27;20054;-81
2022/05/14 09:38:06;;;;;;;23.95;5.22;;;19.20;99.90;;;;;;5093923;27;20124;-81
2022/05/14 09:40:32;;;;;;;22.98;4.93;;;19.20;99.90;;;;;;5102426;27;20035;-80
2022/05/14 09:43:09;;;;;;;22.73;4.85;;;19.20;99.90;;;;;;5100422;27;20067;-80
2022/05/14 09:45:38;;;;;;;24.27;4.85;;;19.10;99.90;;;;;;5098979;27;20039;-79
2022/05/14 09:48:10;;;;;;;25.90;4.82;;;19.00;99.90;;;;;;5105000;27;20043;-79
2022/05/14 09:50:35;;;;;;;25.10;5.50;;;19.10;99.90;;;;;;5096266;28;20078;-81
2022/05/14 09:53:04;;;;;;;20.67;4.53;;;18.90;99.90;;;;;;5108522;27;20308;-81
2022/05/14 09:56:02;;;;;;;24.20;5.35;;;18.70;99.90;;;;;;5098097;27;20050;-80
2022/05/14 09:58:37;;;;;;;21.38;4.82;;;18.60;99.90;;;;;;5078314;28;20056;-79
2022/05/14 10:01:09;;;;;;;23.13;4.85;;;18.40;99.90;;;;;;5083260;28;20106;-80
2022/05/14 10:03:54;;;;;;;21.35;4.72;;;18.30;99.90;;;;;;5071527;28;20041;-79
2022/05/14 10:06:38;;;;;;;21.92;3.83;;;18.20;99.90;;;;;;5081785;28;20147;-79
2022/05/14 10:09:27;;;;;;;27.13;5.13;;;18.30;99.90;;;;;;5066617;28;20385;-80
2022/05/14 10:12:03;;;;;;;26.85;5.07;;;18.40;99.90;;;;;;5074561;28;20134;-80
2022/05/14 10:14:44;;;;;;;24.00;4.50;;;18.40;99.90;;;;;;5066619;28;20105;-82
2022/05/14 10:17:12;;;;;;;25.77;4.97;;;18.50;99.90;;;;;;5080458;28;20048;-83
2022/05/14 10:20:01;;;;;;;16.85;3.95;;;18.60;99.90;;;;;;5071430;28;20555;-83
2022/05/14 10:28:42;;;;;;;22.60;4.88;;;19.10;99.90;;;;;;5081052;28;20040;-83
2022/05/14 10:31:25;;;;;;;25.05;4.85;;;19.30;99.90;;;;;;5064442;28;20049;-82
2022/05/14 10:33:56;;;;;;;28.15;5.50;;;19.50;99.90;;;;;;5067330;28;20147;-83
2022/05/14 10:36:30;;;;;;;22.48;5.25;;;19.60;99.90;;;;;;5077713;28;20049;-83
2022/05/14 10:39:02;;;;;;;28.00;6.05;;;19.80;99.90;;;;;;5075708;28;20131;-83
2022/05/14 10:41:43;;;;;;;24.13;5.10;;;20.00;99.90;;;;;;5080976;28;20126;-85
2022/05/14 10:44:15;;;;;;;20.55;4.60;;;20.00;99.90;;;;;;5065448;28;20048;-83
2022/05/14 10:46:43;;;;;;;21.65;5.30;;;19.80;99.90;;;;;;5070105;28;20464;-82
2022/05/14 10:49:20;;;;;;;23.23;4.97;;;19.40;99.90;;;;;;5088053;28;20036;-89
2022/05/14 10:51:48;;;;;;;21.00;4.78;;;19.10;99.90;;;;;;5079232;28;20149;-83
2022/05/14 10:54:19;;;;;;;20.33;5.00;;;18.90;99.90;;;;;;5067122;28;20055;-85
2022/05/14 10:57:02;;;;;;;25.65;5.15;;;18.90;99.90;;;;;;5069451;28;20106;-84
2022/05/14 10:59:34;;;;;;;28.25;5.10;;;19.10;99.90;;;;;;5089686;28;20062;-83
2022/05/14 11:02:04;;;;;;;19.90;4.45;;;19.50;99.90;;;;;;5083442;27;20500;-83
2022/05/14 11:04:32;;;;;;;23.40;4.60;;;19.90;99.90;;;;;;5110233;27;20501;-83
2022/05/14 11:07:01;;;;;;;21.27;4.53;;;20.10;99.90;;;;;;5110794;27;20043;-84
2022/05/14 11:09:31;;;;;;;25.88;5.30;;;20.40;99.90;;;;;;5109955;27;20050;-84
2022/05/14 11:12:00;;;;;;;23.77;4.65;;;20.40;99.90;;;;;;5110967;27;20107;-83
2022/05/14 11:14:39;;;;;;;21.98;5.57;;;20.10;99.90;;;;;;5082339;28;20043;-84
2022/05/14 11:17:23;;;;;;;21.38;5.05;;;19.90;99.90;;;;;;5090210;28;20466;-84
2022/05/14 11:19:50;;;;;;;19.42;4.95;;;19.80;99.90;;;;;;5072718;28;20172;-84
2022/05/14 11:22:21;;;;;;;25.02;5.28;;;19.70;99.90;;;;;;5090000;28;20051;-84
2022/05/14 11:24:48;;;;;;;21.85;4.55;;;19.50;99.90;;;;;;5073863;28;20047;-85
2022/05/14 11:27:27;;;;;;;23.20;4.90;;;19.40;99.90;;;;;;5072622;28;20043;-83
2022/05/14 11:30:03;;;;;;;22.98;5.13;;;19.30;99.90;;;;;;5089816;28;20044;-84
2022/05/14 11:32:48;;;;;;;24.23;5.40;;;19.50;99.90;;;;;;5095497;27;20789;-85
2022/05/14 11:35:14;;;;;;;23.20;4.78;;;19.50;99.90;;;;;;5069323;28;20071;-83
2022/05/14 11:37:45;;;;;;;21.83;4.35;;;19.50;99.90;;;;;;5075272;27;20035;-83
2022/05/14 11:40:21;;;;;;;22.77;4.93;;;19.50;99.90;;;;;;5109991;27;20389;-84
2022/05/14 11:42:51;;;;;;;28.48;5.38;;;19.50;99.90;;;;;;5093519;28;20050;-84
2022/05/14 11:45:23;;;;;;;24.42;4.90;;;19.40;99.90;;;;;;5092588;27;20043;-84
2022/05/14 11:48:01;;;;;;;28.52;5.43;;;19.30;99.90;;;;;;5108215;28;20076;-84
2022/05/14 11:50:38;;;;;;;28.02;5.30;;;19.40;99.90;;;;;;5088060;28;20047;-84
2022/05/14 11:53:17;;;;;;;25.17;4.93;;;19.70;99.90;;;;;;5068955;28;20507;-83
2022/05/14 11:55:49;;;;;;;25.85;5.50;;;20.20;99.90;;;;;;5053686;28;20072;-84
2022/05/14 11:58:31;;;;;;;23.63;4.93;;;20.40;99.90;;;;;;5078615;28;20616;-85
2022/05/14 12:00:58;;;;;;;24.20;5.47;;;20.40;99.90;;;;;;5061847;28;20135;-83
2022/05/14 12:03:32;;;;;;;25.65;5.25;;;20.40;99.90;;;;;;5063333;28;20059;-84
2022/05/14 12:06:22;;;;;;;19.58;4.90;;;20.40;99.90;;;;;;5108166;28;20109;-81
2022/05/14 12:09:20;;;;;;;22.67;5.60;;;20.30;99.90;;;;;;5086135;28;20084;-84
2022/05/14 12:12:02;;;;;;;24.35;4.97;;;20.10;99.90;;;;;;5104348;28;20047;-81
2022/05/14 12:14:31;;;;;;;19.67;4.28;;;19.90;99.90;;;;;;5082390;28;20043;-82
2022/05/14 12:16:59;;;;;;;28.02;5.45;;;19.70;99.90;;;;;;5072950;28;20047;-82
2022/05/14 12:19:29;;;;;;;30.63;5.43;;;19.90;99.90;;;;;;5083563;28;20095;-83
2022/05/14 12:22:01;;;;;;;28.75;5.45;;;20.20;99.90;;;;;;5098696;27;20092;-82
2022/05/14 12:24:31;;;;;;;23.48;5.03;;;20.50;99.90;;;;;;5099689;28;20406;-82
2022/05/14 12:26:57;;;;;;;25.55;5.68;;;20.70;99.90;;;;;;5113277;27;20068;-83
2022/05/14 12:29:26;;;;;;;23.73;5.38;;;20.90;99.90;;;;;;5106095;27;20082;-83
2022/05/14 12:34:55;;;;;;;28.38;5.30;;;21.10;99.90;;;;;;5103447;27;20509;-83
2022/05/14 12:37:37;;;;;;;24.73;5.68;;;21.20;99.90;;;;;;5113267;27;20090;-81
2022/05/14 12:40:03;;;;;;;23.20;5.00;;;21.30;99.90;;;;;;5095606;28;20048;-83
2022/05/14 12:42:36;;;;;;;21.83;5.30;;;21.40;99.90;;;;;;5091126;27;20130;-82
2022/05/14 12:45:02;;;;;;;25.25;5.22;;;21.60;99.90;;;;;;5101230;27;20035;-81
2022/05/14 12:47:30;;;;;;;26.70;5.55;;;21.60;99.90;;;;;;5113662;27;20054;-80
2022/05/14 12:49:57;;;;;;;25.73;5.50;;;21.80;99.90;;;;;;5105592;27;20037;-80
2022/05/14 12:52:28;;;;;;;23.63;5.07;;;22.00;99.70;;;;;;5087196;28;20577;-81
2022/05/14 12:55:01;;;;;;;23.50;5.20;;;22.00;99.30;;;;;;5083067;27;20463;-81
2022/05/14 12:57:27;;;;;;;24.83;5.38;;;21.80;98.00;;;;;;5093760;27;20121;-81
2022/05/14 12:59:55;;;;;;;20.17;4.22;;;21.50;99.50;;;;;;5083724;27;20059;-81
2022/05/14 13:02:26;;;;;;;26.50;5.78;;;21.40;99.90;;;;;;5092215;27;20053;-81
2022/05/14 13:05:02;;;;;;;21.13;5.03;;;21.20;99.90;;;;;;5086904;27;20057;-81
2022/05/14 13:07:29;;;;;;;26.90;5.13;;;20.90;99.90;;;;;;5092768;28;20530;-80
2022/05/14 13:09:56;;;;;;;29.50;5.47;;;20.60;99.90;;;;;;5104527;27;20150;-81
2022/05/14 13:12:27;;;;;;;21.83;5.22;;;20.30;99.90;;;;;;5110533;27;20915;-81